Cerrillos, New Mexico
Current Conditions -  °F | °C
As of 8:53 AM on Thursday 30 Oct 2014 (Local Time) from KSAF Reporting Station
Clear Clear  
Wind Chill: 40°   Ceiling: Unl
Heat Index: 45°   Visibility: 10mi
Dew Point: 12°   Wind: 10mph
Humidity: 26%   Direction: 40°NE
Pressure: 30.37"   Gusts: NA
Location:  35.44°N, 106.13°W
Report Text: KSAF 301453Z 04009KT 10SM CLR 07/M11 A3037 RMK AO2 SLP246 T00721111 53016
Loading
Personal Weather Stations






























Interactive Weather Map
Tropical Storm Tracking
New forecast layout! Learn more

10-Day Weather Forecast

Advertisements
Track Severe Weather on mobile